sensor_id;sensor_type;location;lat;lon;timestamp;P1;durP1;ratioP1;P2;durP2;ratioP2
21245;SDS011;10781;50.928;4.440;2023-08-12T00:00:18;7.15;;;4.03;;
21245;SDS011;10781;50.928;4.440;2023-08-12T00:02:44;8.55;;;3.97;;
21245;SDS011;10781;50.928;4.440;2023-08-12T00:05:10;7.90;;;3.85;;
21245;SDS011;10781;50.928;4.440;2023-08-12T00:07:36;7.75;;;3.75;;
21245;SDS011;10781;50.928;4.440;2023-08-12T00:10:03;6.75;;;3.63;;
21245;SDS011;10781;50.928;4.440;2023-08-12T00:12:31;7.93;;;3.47;;
21245;SDS011;10781;50.928;4.440;2023-08-12T00:14:57;8.15;;;3.13;;
21245;SDS011;10781;50.928;4.440;2023-08-12T00:17:23;4.22;;;3.00;;
21245;SDS011;10781;50.928;4.440;2023-08-12T00:19:48;6.93;;;3.30;;
21245;SDS011;10781;50.928;4.440;2023-08-12T00:22:14;6.60;;;3.28;;
21245;SDS011;10781;50.928;4.440;2023-08-12T00:24:40;5.68;;;3.22;;
21245;SDS011;10781;50.928;4.440;2023-08-12T00:27:06;6.00;;;3.20;;
21245;SDS011;10781;50.928;4.440;2023-08-12T00:29:32;4.88;;;2.80;;
21245;SDS011;10781;50.928;4.440;2023-08-12T00:31:58;6.13;;;3.00;;
21245;SDS011;10781;50.928;4.440;2023-08-12T00:34:23;6.45;;;3.30;;
21245;SDS011;10781;50.928;4.440;2023-08-12T00:36:49;7.20;;;3.35;;
21245;SDS011;10781;50.928;4.440;2023-08-12T00:39:15;5.47;;;2.90;;
21245;SDS011;10781;50.928;4.440;2023-08-12T00:41:40;5.00;;;2.72;;
21245;SDS011;10781;50.928;4.440;2023-08-12T00:44:06;7.68;;;3.40;;
21245;SDS011;10781;50.928;4.440;2023-08-12T00:46:32;9.98;;;3.40;;
21245;SDS011;10781;50.928;4.440;2023-08-12T00:48:59;7.13;;;3.50;;
21245;SDS011;10781;50.928;4.440;2023-08-12T00:51:24;8.15;;;3.35;;
21245;SDS011;10781;50.928;4.440;2023-08-12T00:53:50;5.93;;;3.30;;
21245;SDS011;10781;50.928;4.440;2023-08-12T00:56:17;5.50;;;3.30;;
21245;SDS011;10781;50.928;4.440;2023-08-12T00:58:43;4.68;;;3.63;;
21245;SDS011;10781;50.928;4.440;2023-08-12T01:01:11;7.40;;;3.40;;
21245;SDS011;10781;50.928;4.440;2023-08-12T01:03:37;7.15;;;3.58;;
21245;SDS011;10781;50.928;4.440;2023-08-12T01:06:02;5.88;;;3.17;;
21245;SDS011;10781;50.928;4.440;2023-08-12T01:08:29;6.82;;;3.47;;
21245;SDS011;10781;50.928;4.440;2023-08-12T01:10:58;5.75;;;3.22;;
21245;SDS011;10781;50.928;4.440;2023-08-12T01:13:43;5.35;;;3.53;;
21245;SDS011;10781;50.928;4.440;2023-08-12T01:16:17;8.43;;;4.05;;
21245;SDS011;10781;50.928;4.440;2023-08-12T01:18:45;8.05;;;4.30;;
21245;SDS011;10781;50.928;4.440;2023-08-12T01:21:14;8.07;;;4.00;;
21245;SDS011;10781;50.928;4.440;2023-08-12T01:23:42;7.70;;;3.85;;
21245;SDS011;10781;50.928;4.440;2023-08-12T01:26:08;8.27;;;4.28;;
21245;SDS011;10781;50.928;4.440;2023-08-12T01:28:34;7.03;;;4.40;;
21245;SDS011;10781;50.928;4.440;2023-08-12T01:31:08;7.72;;;4.43;;
21245;SDS011;10781;50.928;4.440;2023-08-12T01:33:48;9.60;;;4.70;;
21245;SDS011;10781;50.928;4.440;2023-08-12T01:36:21;12.13;;;5.32;;
21245;SDS011;10781;50.928;4.440;2023-08-12T01:38:50;10.65;;;5.03;;
21245;SDS011;10781;50.928;4.440;2023-08-12T01:41:17;11.02;;;5.13;;
21245;SDS011;10781;50.928;4.440;2023-08-12T01:43:44;8.15;;;5.25;;
21245;SDS011;10781;50.928;4.440;2023-08-12T01:46:11;11.68;;;5.65;;
21245;SDS011;10781;50.928;4.440;2023-08-12T01:48:36;9.15;;;5.50;;
21245;SDS011;10781;50.928;4.440;2023-08-12T01:51:02;9.35;;;5.32;;
21245;SDS011;10781;50.928;4.440;2023-08-12T01:53:28;12.50;;;5.97;;
21245;SDS011;10781;50.928;4.440;2023-08-12T01:55:53;8.80;;;5.10;;
21245;SDS011;10781;50.928;4.440;2023-08-12T01:58:19;7.95;;;4.88;;
21245;SDS011;10781;50.928;4.440;2023-08-12T02:00:45;8.98;;;4.93;;
21245;SDS011;10781;50.928;4.440;2023-08-12T02:03:10;8.40;;;4.90;;
21245;SDS011;10781;50.928;4.440;2023-08-12T02:05:36;11.63;;;5.10;;
21245;SDS011;10781;50.928;4.440;2023-08-12T02:08:02;8.85;;;4.40;;
21245;SDS011;10781;50.928;4.440;2023-08-12T02:10:29;9.50;;;5.28;;
21245;SDS011;10781;50.928;4.440;2023-08-12T02:12:55;9.68;;;4.70;;
21245;SDS011;10781;50.928;4.440;2023-08-12T02:15:20;8.27;;;4.85;;
21245;SDS011;10781;50.928;4.440;2023-08-12T02:17:46;11.00;;;4.82;;
21245;SDS011;10781;50.928;4.440;2023-08-12T02:20:12;8.40;;;5.28;;
21245;SDS011;10781;50.928;4.440;2023-08-12T02:22:37;8.88;;;4.75;;
21245;SDS011;10781;50.928;4.440;2023-08-12T02:25:03;9.30;;;4.97;;
21245;SDS011;10781;50.928;4.440;2023-08-12T02:27:29;10.82;;;4.70;;
21245;SDS011;10781;50.928;4.440;2023-08-12T02:29:54;8.85;;;5.28;;
21245;SDS011;10781;50.928;4.440;2023-08-12T02:32:20;9.30;;;4.78;;
21245;SDS011;10781;50.928;4.440;2023-08-12T02:34:46;7.72;;;5.38;;
21245;SDS011;10781;50.928;4.440;2023-08-12T02:37:11;11.02;;;5.20;;
21245;SDS011;10781;50.928;4.440;2023-08-12T02:39:37;8.98;;;5.30;;
21245;SDS011;10781;50.928;4.440;2023-08-12T02:42:03;10.10;;;5.30;;
21245;SDS011;10781;50.928;4.440;2023-08-12T02:44:29;10.30;;;5.50;;
21245;SDS011;10781;50.928;4.440;2023-08-12T02:46:55;7.43;;;5.22;;
21245;SDS011;10781;50.928;4.440;2023-08-12T02:49:21;9.07;;;5.63;;
21245;SDS011;10781;50.928;4.440;2023-08-12T02:51:46;9.82;;;5.78;;
21245;SDS011;10781;50.928;4.440;2023-08-12T02:54:12;10.35;;;5.80;;
21245;SDS011;10781;50.928;4.440;2023-08-12T02:56:37;11.45;;;6.43;;
21245;SDS011;10781;50.928;4.440;2023-08-12T02:59:03;7.90;;;5.70;;
21245;SDS011;10781;50.928;4.440;2023-08-12T03:01:29;11.25;;;5.93;;
21245;SDS011;10781;50.928;4.440;2023-08-12T03:03:55;11.13;;;5.80;;
21245;SDS011;10781;50.928;4.440;2023-08-12T03:06:20;11.60;;;5.78;;
21245;SDS011;10781;50.928;4.440;2023-08-12T03:08:46;9.15;;;6.35;;
21245;SDS011;10781;50.928;4.440;2023-08-12T03:11:12;10.40;;;6.60;;
21245;SDS011;10781;50.928;4.440;2023-08-12T03:13:37;10.48;;;6.07;;
21245;SDS011;10781;50.928;4.440;2023-08-12T03:16:03;9.32;;;6.47;;
21245;SDS011;10781;50.928;4.440;2023-08-12T03:18:29;12.57;;;6.82;;
21245;SDS011;10781;50.928;4.440;2023-08-12T03:20:54;14.60;;;6.70;;
21245;SDS011;10781;50.928;4.440;2023-08-12T03:23:20;13.32;;;6.72;;
21245;SDS011;10781;50.928;4.440;2023-08-12T03:25:46;12.57;;;6.82;;
21245;SDS011;10781;50.928;4.440;2023-08-12T03:28:13;7.13;;;5.88;;
21245;SDS011;10781;50.928;4.440;2023-08-12T03:30:39;11.07;;;6.40;;
21245;SDS011;10781;50.928;4.440;2023-08-12T03:33:07;13.45;;;6.60;;
21245;SDS011;10781;50.928;4.440;2023-08-12T03:35:33;13.00;;;6.38;;
21245;SDS011;10781;50.928;4.440;2023-08-12T03:37:58;11.82;;;6.30;;
21245;SDS011;10781;50.928;4.440;2023-08-12T03:40:24;13.23;;;7.50;;
21245;SDS011;10781;50.928;4.440;2023-08-12T03:42:50;17.38;;;7.80;;
21245;SDS011;10781;50.928;4.440;2023-08-12T03:45:15;15.38;;;8.10;;
21245;SDS011;10781;50.928;4.440;2023-08-12T03:47:42;13.30;;;7.78;;
21245;SDS011;10781;50.928;4.440;2023-08-12T03:50:08;14.48;;;8.60;;
21245;SDS011;10781;50.928;4.440;2023-08-12T03:52:33;11.32;;;7.70;;
21245;SDS011;10781;50.928;4.440;2023-08-12T03:54:59;12.38;;;7.70;;
21245;SDS011;10781;50.928;4.440;2023-08-12T03:57:25;15.20;;;8.07;;
21245;SDS011;10781;50.928;4.440;2023-08-12T03:59:50;9.73;;;7.20;;
21245;SDS011;10781;50.928;4.440;2023-08-12T04:02:16;12.40;;;8.02;;
21245;SDS011;10781;50.928;4.440;2023-08-12T04:04:42;9.25;;;6.53;;
21245;SDS011;10781;50.928;4.440;2023-08-12T04:07:08;10.27;;;6.40;;
21245;SDS011;10781;50.928;4.440;2023-08-12T04:09:34;8.05;;;6.32;;
21245;SDS011;10781;50.928;4.440;2023-08-12T04:12:00;6.82;;;6.03;;
21245;SDS011;10781;50.928;4.440;2023-08-12T04:14:25;8.55;;;5.95;;
21245;SDS011;10781;50.928;4.440;2023-08-12T04:16:51;6.75;;;5.10;;
21245;SDS011;10781;50.928;4.440;2023-08-12T04:19:16;7.15;;;5.68;;
21245;SDS011;10781;50.928;4.440;2023-08-12T04:21:42;6.75;;;5.80;;
21245;SDS011;10781;50.928;4.440;2023-08-12T04:24:11;6.55;;;5.70;;
21245;SDS011;10781;50.928;4.440;2023-08-12T04:26:36;6.32;;;5.10;;
21245;SDS011;10781;50.928;4.440;2023-08-12T04:29:02;6.95;;;5.30;;
21245;SDS011;10781;50.928;4.440;2023-08-12T04:31:28;5.20;;;4.45;;
21245;SDS011;10781;50.928;4.440;2023-08-12T04:33:53;5.85;;;4.90;;
21245;SDS011;10781;50.928;4.440;2023-08-12T04:36:19;5.43;;;4.30;;
21245;SDS011;10781;50.928;4.440;2023-08-12T04:38:45;6.72;;;4.47;;
21245;SDS011;10781;50.928;4.440;2023-08-12T04:41:10;7.68;;;4.30;;
21245;SDS011;10781;50.928;4.440;2023-08-12T04:43:36;5.35;;;4.22;;
21245;SDS011;10781;50.928;4.440;2023-08-12T04:46:02;4.65;;;4.25;;
21245;SDS011;10781;50.928;4.440;2023-08-12T04:48:27;5.55;;;4.32;;
21245;SDS011;10781;50.928;4.440;2023-08-12T04:50:53;4.65;;;4.25;;
21245;SDS011;10781;50.928;4.440;2023-08-12T04:53:19;4.80;;;4.30;;
21245;SDS011;10781;50.928;4.440;2023-08-12T04:55:45;5.35;;;4.35;;
21245;SDS011;10781;50.928;4.440;2023-08-12T04:58:15;5.72;;;4.40;;
21245;SDS011;10781;50.928;4.440;2023-08-12T05:00:41;6.22;;;4.70;;
21245;SDS011;10781;50.928;4.440;2023-08-12T05:03:07;5.38;;;4.35;;
21245;SDS011;10781;50.928;4.440;2023-08-12T05:05:32;4.88;;;4.38;;
21245;SDS011;10781;50.928;4.440;2023-08-12T05:07:58;5.72;;;4.25;;
21245;SDS011;10781;50.928;4.440;2023-08-12T05:10:24;5.10;;;4.32;;
21245;SDS011;10781;50.928;4.440;2023-08-12T05:12:49;4.20;;;3.80;;
21245;SDS011;10781;50.928;4.440;2023-08-12T05:15:17;3.83;;;3.53;;
21245;SDS011;10781;50.928;4.440;2023-08-12T05:17:42;3.80;;;3.50;;
21245;SDS011;10781;50.928;4.440;2023-08-12T05:20:08;3.97;;;3.60;;
21245;SDS011;10781;50.928;4.440;2023-08-12T05:22:34;3.90;;;3.50;;
21245;SDS011;10781;50.928;4.440;2023-08-12T05:25:00;5.70;;;4.00;;
21245;SDS011;10781;50.928;4.440;2023-08-12T05:27:25;5.35;;;4.18;;
21245;SDS011;10781;50.928;4.440;2023-08-12T05:29:51;5.85;;;4.45;;
21245;SDS011;10781;50.928;4.440;2023-08-12T05:32:17;6.20;;;5.15;;
21245;SDS011;10781;50.928;4.440;2023-08-12T05:34:42;8.18;;;4.90;;
21245;SDS011;10781;50.928;4.440;2023-08-12T05:37:08;5.75;;;5.20;;
21245;SDS011;10781;50.928;4.440;2023-08-12T05:39:34;6.40;;;5.70;;
21245;SDS011;10781;50.928;4.440;2023-08-12T05:44:35;9.35;;;5.88;;
21245;SDS011;10781;50.928;4.440;2023-08-12T05:47:00;5.85;;;5.35;;
21245;SDS011;10781;50.928;4.440;2023-08-12T05:49:26;6.50;;;5.88;;
21245;SDS011;10781;50.928;4.440;2023-08-12T05:51:51;7.80;;;6.00;;
21245;SDS011;10781;50.928;4.440;2023-08-12T05:54:17;7.00;;;6.30;;
21245;SDS011;10781;50.928;4.440;2023-08-12T05:56:43;6.60;;;5.80;;
21245;SDS011;10781;50.928;4.440;2023-08-12T05:59:08;8.45;;;6.78;;
21245;SDS011;10781;50.928;4.440;2023-08-12T06:01:34;7.40;;;6.70;;
21245;SDS011;10781;50.928;4.440;2023-08-12T06:03:59;9.45;;;7.57;;
21245;SDS011;10781;50.928;4.440;2023-08-12T06:06:25;8.55;;;7.63;;
21245;SDS011;10781;50.928;4.440;2023-08-12T06:08:51;8.23;;;7.35;;
21245;SDS011;10781;50.928;4.440;2023-08-12T06:11:16;8.45;;;7.50;;
21245;SDS011;10781;50.928;4.440;2023-08-12T06:13:42;8.23;;;7.43;;
21245;SDS011;10781;50.928;4.440;2023-08-12T06:16:08;9.20;;;6.88;;
21245;SDS011;10781;50.928;4.440;2023-08-12T06:18:33;8.23;;;7.13;;
21245;SDS011;10781;50.928;4.440;2023-08-12T06:20:59;7.72;;;6.93;;
21245;SDS011;10781;50.928;4.440;2023-08-12T06:23:25;8.07;;;6.47;;
21245;SDS011;10781;50.928;4.440;2023-08-12T06:25:50;6.15;;;5.55;;
21245;SDS011;10781;50.928;4.440;2023-08-12T06:28:16;6.88;;;5.60;;
21245;SDS011;10781;50.928;4.440;2023-08-12T06:30:44;6.78;;;5.65;;
21245;SDS011;10781;50.928;4.440;2023-08-12T06:33:10;7.93;;;5.57;;
21245;SDS011;10781;50.928;4.440;2023-08-12T06:35:36;6.32;;;5.22;;
21245;SDS011;10781;50.928;4.440;2023-08-12T06:38:02;8.10;;;5.50;;
21245;SDS011;10781;50.928;4.440;2023-08-12T06:40:28;10.73;;;5.55;;
21245;SDS011;10781;50.928;4.440;2023-08-12T06:42:55;6.30;;;5.55;;
21245;SDS011;10781;50.928;4.440;2023-08-12T06:45:21;5.78;;;5.15;;
21245;SDS011;10781;50.928;4.440;2023-08-12T06:47:47;6.30;;;4.60;;
21245;SDS011;10781;50.928;4.440;2023-08-12T06:50:12;5.18;;;4.63;;
21245;SDS011;10781;50.928;4.440;2023-08-12T06:52:38;6.07;;;4.30;;
21245;SDS011;10781;50.928;4.440;2023-08-12T06:55:04;5.78;;;4.53;;
21245;SDS011;10781;50.928;4.440;2023-08-12T06:57:30;5.30;;;3.83;;
21245;SDS011;10781;50.928;4.440;2023-08-12T06:59:55;4.97;;;3.63;;
21245;SDS011;10781;50.928;4.440;2023-08-12T07:02:21;4.97;;;3.67;;
21245;SDS011;10781;50.928;4.440;2023-08-12T07:04:47;4.10;;;2.92;;
21245;SDS011;10781;50.928;4.440;2023-08-12T07:07:12;4.68;;;3.25;;
21245;SDS011;10781;50.928;4.440;2023-08-12T07:09:38;5.07;;;3.00;;
21245;SDS011;10781;50.928;4.440;2023-08-12T07:12:03;5.15;;;3.10;;
21245;SDS011;10781;50.928;4.440;2023-08-12T07:14:29;3.80;;;2.85;;
21245;SDS011;10781;50.928;4.440;2023-08-12T07:16:55;2.75;;;2.30;;
21245;SDS011;10781;50.928;4.440;2023-08-12T07:19:21;2.78;;;2.35;;
21245;SDS011;10781;50.928;4.440;2023-08-12T07:21:47;4.35;;;2.70;;
21245;SDS011;10781;50.928;4.440;2023-08-12T07:24:13;3.22;;;2.83;;
21245;SDS011;10781;50.928;4.440;2023-08-12T07:26:39;3.47;;;2.35;;
21245;SDS011;10781;50.928;4.440;2023-08-12T07:29:04;1.75;;;1.65;;
21245;SDS011;10781;50.928;4.440;2023-08-12T07:31:30;2.40;;;2.10;;
21245;SDS011;10781;50.928;4.440;2023-08-12T07:33:55;2.28;;;2.08;;
21245;SDS011;10781;50.928;4.440;2023-08-12T07:36:21;2.22;;;2.03;;
21245;SDS011;10781;50.928;4.440;2023-08-12T07:38:47;2.65;;;2.00;;
21245;SDS011;10781;50.928;4.440;2023-08-12T07:41:13;4.10;;;2.25;;
21245;SDS011;10781;50.928;4.440;2023-08-12T07:43:38;3.30;;;2.40;;
21245;SDS011;10781;50.928;4.440;2023-08-12T07:46:04;3.17;;;2.45;;
21245;SDS011;10781;50.928;4.440;2023-08-12T07:48:30;2.85;;;2.28;;
21245;SDS011;10781;50.928;4.440;2023-08-12T07:50:59;5.85;;;2.80;;
21245;SDS011;10781;50.928;4.440;2023-08-12T07:53:25;3.38;;;2.17;;
21245;SDS011;10781;50.928;4.440;2023-08-12T07:55:51;2.33;;;2.10;;
21245;SDS011;10781;50.928;4.440;2023-08-12T07:58:17;2.70;;;2.05;;
21245;SDS011;10781;50.928;4.440;2023-08-12T08:00:43;3.05;;;2.50;;
21245;SDS011;10781;50.928;4.440;2023-08-12T08:03:08;2.85;;;2.00;;
21245;SDS011;10781;50.928;4.440;2023-08-12T08:05:34;2.25;;;2.05;;
21245;SDS011;10781;50.928;4.440;2023-08-12T08:08:00;4.00;;;2.20;;
21245;SDS011;10781;50.928;4.440;2023-08-12T08:10:25;2.80;;;2.60;;
21245;SDS011;10781;50.928;4.440;2023-08-12T08:12:51;3.08;;;2.78;;
21245;SDS011;10781;50.928;4.440;2023-08-12T08:15:16;4.05;;;2.85;;
21245;SDS011;10781;50.928;4.440;2023-08-12T08:17:42;4.38;;;2.90;;
21245;SDS011;10781;50.928;4.440;2023-08-12T08:20:08;2.72;;;2.53;;
21245;SDS011;10781;50.928;4.440;2023-08-12T08:22:35;3.08;;;2.50;;
21245;SDS011;10781;50.928;4.440;2023-08-12T08:25:01;4.68;;;3.20;;
21245;SDS011;10781;50.928;4.440;2023-08-12T08:27:27;8.00;;;3.60;;
21245;SDS011;10781;50.928;4.440;2023-08-12T08:29:52;4.65;;;3.75;;
21245;SDS011;10781;50.928;4.440;2023-08-12T08:32:18;5.05;;;3.60;;
21245;SDS011;10781;50.928;4.440;2023-08-12T08:34:44;5.32;;;3.40;;
21245;SDS011;10781;50.928;4.440;2023-08-12T08:37:10;4.68;;;3.60;;
21245;SDS011;10781;50.928;4.440;2023-08-12T08:39:35;3.63;;;3.28;;
21245;SDS011;10781;50.928;4.440;2023-08-12T08:42:01;3.78;;;3.17;;
21245;SDS011;10781;50.928;4.440;2023-08-12T08:44:30;4.68;;;3.22;;
21245;SDS011;10781;50.928;4.440;2023-08-12T08:46:58;3.60;;;3.30;;
21245;SDS011;10781;50.928;4.440;2023-08-12T08:49:28;4.47;;;3.60;;
21245;SDS011;10781;50.928;4.440;2023-08-12T08:51:55;3.97;;;3.28;;
21245;SDS011;10781;50.928;4.440;2023-08-12T08:54:22;3.88;;;3.15;;
21245;SDS011;10781;50.928;4.440;2023-08-12T08:56:48;4.85;;;3.53;;
21245;SDS011;10781;50.928;4.440;2023-08-12T08:59:14;4.03;;;3.63;;
21245;SDS011;10781;50.928;4.440;2023-08-12T09:01:40;4.70;;;3.80;;
21245;SDS011;10781;50.928;4.440;2023-08-12T09:04:08;4.60;;;3.70;;
21245;SDS011;10781;50.928;4.440;2023-08-12T09:06:35;9.13;;;4.00;;
21245;SDS011;10781;50.928;4.440;2023-08-12T09:09:04;5.10;;;3.67;;
21245;SDS011;10781;50.928;4.440;2023-08-12T09:11:35;5.15;;;3.40;;
21245;SDS011;10781;50.928;4.440;2023-08-12T09:14:03;4.57;;;2.95;;
21245;SDS011;10781;50.928;4.440;2023-08-12T09:16:29;3.53;;;2.80;;
21245;SDS011;10781;50.928;4.440;2023-08-12T09:18:57;3.60;;;2.60;;
21245;SDS011;10781;50.928;4.440;2023-08-12T09:21:23;4.35;;;2.50;;
21245;SDS011;10781;50.928;4.440;2023-08-12T09:23:49;6.15;;;2.33;;
21245;SDS011;10781;50.928;4.440;2023-08-12T09:26:19;3.47;;;2.20;;
21245;SDS011;10781;50.928;4.440;2023-08-12T09:28:45;4.82;;;2.60;;
21245;SDS011;10781;50.928;4.440;2023-08-12T09:33:57;3.97;;;1.85;;
21245;SDS011;10781;50.928;4.440;2023-08-12T09:36:27;6.80;;;1.90;;
21245;SDS011;10781;50.928;4.440;2023-08-12T09:38:54;3.78;;;1.63;;
21245;SDS011;10781;50.928;4.440;2023-08-12T09:41:22;5.07;;;1.48;;
21245;SDS011;10781;50.928;4.440;2023-08-12T09:43:50;6.28;;;1.70;;
21245;SDS011;10781;50.928;4.440;2023-08-12T09:46:17;3.30;;;1.70;;
21245;SDS011;10781;50.928;4.440;2023-08-12T09:48:42;3.53;;;1.55;;
21245;SDS011;10781;50.928;4.440;2023-08-12T09:51:08;2.55;;;1.40;;
21245;SDS011;10781;50.928;4.440;2023-08-12T09:53:35;3.88;;;1.40;;
21245;SDS011;10781;50.928;4.440;2023-08-12T09:56:06;3.20;;;1.40;;
21245;SDS011;10781;50.928;4.440;2023-08-12T09:58:35;4.13;;;1.52;;
21245;SDS011;10781;50.928;4.440;2023-08-12T10:01:05;6.63;;;2.38;;
21245;SDS011;10781;50.928;4.440;2023-08-12T10:03:33;4.20;;;1.80;;
21245;SDS011;10781;50.928;4.440;2023-08-12T10:06:00;5.15;;;1.73;;
21245;SDS011;10781;50.928;4.440;2023-08-12T10:08:29;5.05;;;1.70;;
21245;SDS011;10781;50.928;4.440;2023-08-12T10:10:55;4.45;;;1.67;;
21245;SDS011;10781;50.928;4.440;2023-08-12T10:13:21;3.00;;;1.55;;
21245;SDS011;10781;50.928;4.440;2023-08-12T10:15:47;5.60;;;1.67;;
21245;SDS011;10781;50.928;4.440;2023-08-12T10:18:14;3.30;;;1.38;;
21245;SDS011;10781;50.928;4.440;2023-08-12T10:20:40;3.63;;;1.33;;
21245;SDS011;10781;50.928;4.440;2023-08-12T10:23:08;2.92;;;1.38;;
21245;SDS011;10781;50.928;4.440;2023-08-12T10:25:39;2.80;;;1.50;;
21245;SDS011;10781;50.928;4.440;2023-08-12T10:28:07;3.92;;;1.52;;
21245;SDS011;10781;50.928;4.440;2023-08-12T10:30:33;7.30;;;1.65;;
21245;SDS011;10781;50.928;4.440;2023-08-12T10:33:00;4.00;;;1.50;;
21245;SDS011;10781;50.928;4.440;2023-08-12T10:35:40;5.88;;;1.40;;
21245;SDS011;10781;50.928;4.440;2023-08-12T10:38:07;3.08;;;1.40;;
21245;SDS011;10781;50.928;4.440;2023-08-12T10:40:33;3.75;;;1.33;;
21245;SDS011;10781;50.928;4.440;2023-08-12T10:42:59;5.13;;;1.58;;
21245;SDS011;10781;50.928;4.440;2023-08-12T10:45:24;5.03;;;1.42;;
21245;SDS011;10781;50.928;4.440;2023-08-12T10:50:34;3.85;;;1.25;;
21245;SDS011;10781;50.928;4.440;2023-08-12T10:53:01;4.05;;;1.45;;
21245;SDS011;10781;50.928;4.440;2023-08-12T10:55:50;4.50;;;1.45;;
21245;SDS011;10781;50.928;4.440;2023-08-12T10:58:35;4.82;;;1.40;;
21245;SDS011;10781;50.928;4.440;2023-08-12T11:01:01;5.45;;;1.33;;
21245;SDS011;10781;50.928;4.440;2023-08-12T11:03:31;3.58;;;1.40;;
21245;SDS011;10781;50.928;4.440;2023-08-12T11:05:59;4.70;;;1.30;;
21245;SDS011;10781;50.928;4.440;2023-08-12T11:08:26;4.72;;;1.33;;
21245;SDS011;10781;50.928;4.440;2023-08-12T11:10:54;2.22;;;1.23;;
21245;SDS011;10781;50.928;4.440;2023-08-12T11:13:21;6.43;;;1.30;;
21245;SDS011;10781;50.928;4.440;2023-08-12T11:15:47;3.33;;;1.35;;
21245;SDS011;10781;50.928;4.440;2023-08-12T11:18:15;3.50;;;1.20;;
21245;SDS011;10781;50.928;4.440;2023-08-12T11:20:42;2.38;;;1.27;;
21245;SDS011;10781;50.928;4.440;2023-08-12T11:23:09;3.13;;;1.30;;
21245;SDS011;10781;50.928;4.440;2023-08-12T11:25:37;2.00;;;1.10;;
21245;SDS011;10781;50.928;4.440;2023-08-12T11:28:05;3.85;;;1.60;;
21245;SDS011;10781;50.928;4.440;2023-08-12T11:30:31;4.63;;;1.30;;
21245;SDS011;10781;50.928;4.440;2023-08-12T11:32:57;4.53;;;1.30;;
21245;SDS011;10781;50.928;4.440;2023-08-12T11:35:24;2.50;;;1.25;;
21245;SDS011;10781;50.928;4.440;2023-08-12T11:37:51;4.53;;;1.40;;
21245;SDS011;10781;50.928;4.440;2023-08-12T11:40:18;4.88;;;1.40;;
21245;SDS011;10781;50.928;4.440;2023-08-12T11:42:45;4.05;;;1.55;;
21245;SDS011;10781;50.928;4.440;2023-08-12T11:45:12;4.03;;;1.20;;
21245;SDS011;10781;50.928;4.440;2023-08-12T11:47:40;4.72;;;1.45;;
21245;SDS011;10781;50.928;4.440;2023-08-12T11:50:07;4.72;;;1.30;;
21245;SDS011;10781;50.928;4.440;2023-08-12T11:52:34;4.63;;;3.38;;
21245;SDS011;10781;50.928;4.440;2023-08-12T11:55:01;5.40;;;1.40;;
21245;SDS011;10781;50.928;4.440;2023-08-12T11:57:27;4.60;;;1.33;;
21245;SDS011;10781;50.928;4.440;2023-08-12T12:00:00;4.47;;;1.30;;
21245;SDS011;10781;50.928;4.440;2023-08-12T12:02:28;5.90;;;1.23;;
21245;SDS011;10781;50.928;4.440;2023-08-12T12:04:53;3.30;;;1.25;;
21245;SDS011;10781;50.928;4.440;2023-08-12T12:07:21;2.65;;;1.10;;
21245;SDS011;10781;50.928;4.440;2023-08-12T12:09:55;4.05;;;1.30;;
21245;SDS011;10781;50.928;4.440;2023-08-12T12:12:24;3.60;;;1.13;;
21245;SDS011;10781;50.928;4.440;2023-08-12T12:14:53;5.20;;;1.17;;
21245;SDS011;10781;50.928;4.440;2023-08-12T12:17:21;3.95;;;1.27;;
21245;SDS011;10781;50.928;4.440;2023-08-12T12:19:51;2.70;;;1.17;;
21245;SDS011;10781;50.928;4.440;2023-08-12T12:22:26;3.85;;;1.30;;
21245;SDS011;10781;50.928;4.440;2023-08-12T12:24:53;4.55;;;1.20;;
21245;SDS011;10781;50.928;4.440;2023-08-12T12:27:19;3.00;;;1.15;;
21245;SDS011;10781;50.928;4.440;2023-08-12T12:29:45;1.95;;;0.93;;
21245;SDS011;10781;50.928;4.440;2023-08-12T12:32:10;4.47;;;1.25;;
21245;SDS011;10781;50.928;4.440;2023-08-12T12:34:36;4.55;;;1.35;;
21245;SDS011;10781;50.928;4.440;2023-08-12T12:37:02;3.45;;;1.20;;
21245;SDS011;10781;50.928;4.440;2023-08-12T12:39:28;3.20;;;1.00;;
21245;SDS011;10781;50.928;4.440;2023-08-12T12:41:53;3.53;;;1.17;;
21245;SDS011;10781;50.928;4.440;2023-08-12T12:44:19;2.55;;;1.15;;
21245;SDS011;10781;50.928;4.440;2023-08-12T12:46:44;3.20;;;1.33;;
21245;SDS011;10781;50.928;4.440;2023-08-12T12:49:10;2.78;;;1.17;;
21245;SDS011;10781;50.928;4.440;2023-08-12T12:51:36;2.97;;;1.20;;
21245;SDS011;10781;50.928;4.440;2023-08-12T12:54:01;4.03;;;1.17;;
21245;SDS011;10781;50.928;4.440;2023-08-12T12:56:27;2.83;;;1.05;;
21245;SDS011;10781;50.928;4.440;2023-08-12T12:58:53;2.95;;;1.10;;
21245;SDS011;10781;50.928;4.440;2023-08-12T13:01:18;3.90;;;1.20;;
21245;SDS011;10781;50.928;4.440;2023-08-12T13:03:47;4.38;;;1.40;;
21245;SDS011;10781;50.928;4.440;2023-08-12T13:06:12;3.55;;;1.58;;
21245;SDS011;10781;50.928;4.440;2023-08-12T13:08:38;4.07;;;1.30;;
21245;SDS011;10781;50.928;4.440;2023-08-12T13:11:04;2.88;;;1.10;;
21245;SDS011;10781;50.928;4.440;2023-08-12T13:13:29;2.35;;;1.10;;
21245;SDS011;10781;50.928;4.440;2023-08-12T13:15:55;3.50;;;1.60;;
21245;SDS011;10781;50.928;4.440;2023-08-12T13:18:23;2.65;;;1.13;;
21245;SDS011;10781;50.928;4.440;2023-08-12T13:20:49;3.85;;;1.15;;
21245;SDS011;10781;50.928;4.440;2023-08-12T13:23:14;3.65;;;1.20;;
21245;SDS011;10781;50.928;4.440;2023-08-12T13:25:40;4.32;;;1.27;;
21245;SDS011;10781;50.928;4.440;2023-08-12T13:28:06;2.75;;;1.08;;
21245;SDS011;10781;50.928;4.440;2023-08-12T13:30:31;2.60;;;1.08;;
21245;SDS011;10781;50.928;4.440;2023-08-12T13:32:57;3.00;;;1.10;;
21245;SDS011;10781;50.928;4.440;2023-08-12T13:35:23;2.60;;;1.13;;
21245;SDS011;10781;50.928;4.440;2023-08-12T13:37:49;2.10;;;1.00;;
21245;SDS011;10781;50.928;4.440;2023-08-12T13:40:16;3.10;;;1.33;;
21245;SDS011;10781;50.928;4.440;2023-08-12T13:42:42;3.75;;;1.58;;
21245;SDS011;10781;50.928;4.440;2023-08-12T13:45:09;3.83;;;1.40;;
21245;SDS011;10781;50.928;4.440;2023-08-12T13:47:36;3.70;;;1.40;;
21245;SDS011;10781;50.928;4.440;2023-08-12T13:50:02;3.33;;;1.20;;
21245;SDS011;10781;50.928;4.440;2023-08-12T13:52:28;3.10;;;1.45;;
21245;SDS011;10781;50.928;4.440;2023-08-12T13:54:53;5.68;;;1.67;;
21245;SDS011;10781;50.928;4.440;2023-08-12T13:57:19;2.45;;;1.50;;
21245;SDS011;10781;50.928;4.440;2023-08-12T13:59:45;3.28;;;1.40;;
21245;SDS011;10781;50.928;4.440;2023-08-12T14:02:12;4.47;;;1.40;;
21245;SDS011;10781;50.928;4.440;2023-08-12T14:04:39;6.22;;;1.60;;
21245;SDS011;10781;50.928;4.440;2023-08-12T14:07:04;4.47;;;1.60;;
21245;SDS011;10781;50.928;4.440;2023-08-12T14:09:33;3.53;;;1.38;;
21245;SDS011;10781;50.928;4.440;2023-08-12T14:11:59;3.25;;;1.27;;
21245;SDS011;10781;50.928;4.440;2023-08-12T14:14:25;3.05;;;1.60;;
21245;SDS011;10781;50.928;4.440;2023-08-12T14:16:52;4.97;;;1.40;;
21245;SDS011;10781;50.928;4.440;2023-08-12T14:19:18;3.72;;;1.50;;
21245;SDS011;10781;50.928;4.440;2023-08-12T14:21:44;3.28;;;1.40;;
21245;SDS011;10781;50.928;4.440;2023-08-12T14:24:10;4.93;;;1.42;;
21245;SDS011;10781;50.928;4.440;2023-08-12T14:26:36;3.78;;;1.55;;
21245;SDS011;10781;50.928;4.440;2023-08-12T14:29:02;3.97;;;1.50;;
21245;SDS011;10781;50.928;4.440;2023-08-12T14:31:28;2.97;;;1.30;;
21245;SDS011;10781;50.928;4.440;2023-08-12T14:33:53;4.90;;;1.50;;
21245;SDS011;10781;50.928;4.440;2023-08-12T14:36:19;5.93;;;1.55;;
21245;SDS011;10781;50.928;4.440;2023-08-12T14:38:45;3.63;;;1.33;;
21245;SDS011;10781;50.928;4.440;2023-08-12T14:41:10;4.70;;;2.17;;
21245;SDS011;10781;50.928;4.440;2023-08-12T14:43:36;6.80;;;1.55;;
21245;SDS011;10781;50.928;4.440;2023-08-12T14:46:02;3.22;;;1.48;;
21245;SDS011;10781;50.928;4.440;2023-08-12T14:48:28;4.07;;;1.23;;